Time;durP1;ratioP1;P1;durP2;ratioP2;P2;SDS_P1;SDS_P2;PMS_P1;PMS_P2;Temp;Humidity;BMP_temperature;BMP_pressure;BME280_temperature;BME280_humidity;BME280_pressure;Samples;Min_cycle;Max_cycle;Signal;HPM_P1;HPM_P2
2021/05/15 00:01:17;;;;;;;2.40;2.15;;;14.60;99.90;;;;;;4194790;28;20056;-73
2021/05/15 00:03:17;;;;;;;3.10;2.40;;;14.60;99.90;;;;;;4194694;28;20047;-72
2021/05/15 00:05:18;;;;;;;2.40;2.05;;;14.60;99.90;;;;;;4193006;28;20051;-71
2021/05/15 00:07:19;;;;;;;2.53;2.05;;;14.60;99.90;;;;;;4194858;28;20052;-72
2021/05/15 00:09:19;;;;;;;3.42;2.40;;;14.50;99.90;;;;;;4193603;28;20492;-71
2021/05/15 00:11:20;;;;;;;2.75;2.03;;;14.50;99.90;;;;;;4192846;28;20628;-72
2021/05/15 00:13:20;;;;;;;2.80;2.28;;;14.50;99.90;;;;;;4194594;28;20950;-72
2021/05/15 00:15:21;;;;;;;2.92;2.00;;;14.50;99.90;;;;;;4194578;28;20048;-72
2021/05/15 00:17:22;;;;;;;3.60;1.92;;;14.50;99.90;;;;;;4194482;28;20036;-71
2021/05/15 00:19:22;;;;;;;2.15;1.92;;;14.50;99.90;;;;;;4194794;28;20036;-71
2021/05/15 00:21:23;;;;;;;2.63;2.08;;;14.50;99.90;;;;;;4193020;28;20043;-71
2021/05/15 00:23:23;;;;;;;2.20;1.98;;;14.50;99.90;;;;;;4194291;28;20032;-71
2021/05/15 00:25:24;;;;;;;3.03;2.05;;;14.50;99.90;;;;;;4194635;28;20037;-71
2021/05/15 00:27:24;;;;;;;2.50;2.20;;;14.50;99.90;;;;;;4194308;28;20036;-71
2021/05/15 00:29:25;;;;;;;4.07;2.22;;;14.50;99.90;;;;;;4192779;28;20032;-72
2021/05/15 00:31:26;;;;;;;2.88;2.28;;;14.40;99.90;;;;;;4194473;28;20048;-71
2021/05/15 00:33:26;;;;;;;2.95;2.20;;;14.40;99.90;;;;;;4192674;28;20078;-71
2021/05/15 00:35:27;;;;;;;2.83;2.30;;;14.40;99.90;;;;;;4194012;28;20059;-72
2021/05/15 00:37:27;;;;;;;2.83;2.38;;;14.40;99.90;;;;;;4194747;28;20038;-71
2021/05/15 00:39:28;;;;;;;4.03;2.40;;;14.30;99.90;;;;;;4178300;28;20493;-72
2021/05/15 00:41:29;;;;;;;3.08;2.65;;;14.30;99.90;;;;;;4177710;28;20372;-72
2021/05/15 00:43:29;;;;;;;2.70;2.30;;;14.30;99.90;;;;;;4184175;28;20044;-71
2021/05/15 00:45:30;;;;;;;3.65;2.30;;;14.20;99.90;;;;;;4194082;28;20064;-71
2021/05/15 00:47:31;;;;;;;3.05;2.40;;;14.20;99.90;;;;;;4194307;28;20086;-71
2021/05/15 00:49:31;;;;;;;2.60;2.17;;;14.20;99.90;;;;;;4194085;28;20044;-72
2021/05/15 00:51:33;;;;;;;2.72;2.10;;;14.10;99.90;;;;;;4193945;28;20035;-71
2021/05/15 00:53:33;;;;;;;3.33;2.25;;;14.10;99.90;;;;;;4194209;28;20033;-72
2021/05/15 00:55:36;;;;;;;2.92;2.33;;;14.10;99.90;;;;;;4175896;28;20056;-71
2021/05/15 00:57:38;;;;;;;2.40;2.20;;;14.10;99.90;;;;;;4192386;28;20420;-71
2021/05/15 00:59:40;;;;;;;2.58;2.38;;;14.00;99.90;;;;;;4180622;28;20036;-72
2021/05/15 01:01:40;;;;;;;2.67;2.30;;;14.00;99.90;;;;;;4193750;28;20024;-71
2021/05/15 01:03:41;;;;;;;3.63;2.25;;;14.00;99.90;;;;;;4191746;28;20162;-71
2021/05/15 01:05:41;;;;;;;4.13;2.45;;;14.00;99.90;;;;;;4193764;28;20035;-71
2021/05/15 01:07:47;;;;;;;6.38;2.35;;;13.90;99.90;;;;;;4193848;28;20036;-72
2021/05/15 01:09:47;;;;;;;3.17;2.72;;;13.90;99.90;;;;;;4193531;28;20506;-71
2021/05/15 01:11:49;;;;;;;3.03;2.28;;;13.80;99.90;;;;;;4192512;28;20040;-71
2021/05/15 01:13:58;;;;;;;2.33;1.90;;;13.80;99.90;;;;;;4193857;28;20137;-71
2021/05/15 01:16:02;;;;;;;2.15;1.95;;;13.80;99.90;;;;;;4192887;28;20028;-69
2021/05/15 01:18:02;;;;;;;2.60;2.00;;;13.80;99.90;;;;;;4180379;28;20029;-70
2021/05/15 01:20:03;;;;;;;3.42;2.40;;;13.70;99.90;;;;;;4191577;28;20353;-70
2021/05/15 01:22:09;;;;;;;3.55;2.33;;;13.70;99.90;;;;;;4192841;28;20544;-70
2021/05/15 01:24:10;;;;;;;2.60;1.80;;;13.70;99.90;;;;;;4193560;28;20135;-70
2021/05/15 01:26:19;;;;;;;2.30;1.67;;;13.60;99.90;;;;;;4191897;28;20040;-70
2021/05/15 01:28:19;;;;;;;2.42;1.80;;;13.70;99.90;;;;;;4193795;28;20111;-70
2021/05/15 01:30:21;;;;;;;2.05;1.80;;;13.60;99.90;;;;;;4193466;28;20094;-70
2021/05/15 01:32:21;;;;;;;4.22;1.90;;;13.60;99.90;;;;;;4191419;28;20040;-70
2021/05/15 01:34:22;;;;;;;3.05;1.90;;;13.60;99.90;;;;;;4193133;28;20074;-70
2021/05/15 01:36:25;;;;;;;2.00;1.80;;;13.60;99.90;;;;;;4193323;28;20048;-70
2021/05/15 01:38:25;;;;;;;2.03;1.80;;;13.60;99.90;;;;;;4193378;28;20029;-70
2021/05/15 01:40:27;;;;;;;2.03;1.75;;;13.60;99.90;;;;;;4193294;28;20040;-70
2021/05/15 01:42:27;;;;;;;1.92;1.50;;;13.60;99.90;;;;;;4193231;28;20060;-70
2021/05/15 01:44:31;;;;;;;2.80;1.55;;;13.60;99.90;;;;;;4193010;28;20032;-70
2021/05/15 01:46:32;;;;;;;1.55;1.42;;;13.50;99.90;;;;;;4193384;28;20418;-70
2021/05/15 01:48:34;;;;;;;2.33;1.63;;;13.50;99.90;;;;;;4192921;28;20048;-70
2021/05/15 01:50:34;;;;;;;2.53;1.88;;;13.60;99.90;;;;;;4192934;28;20163;-70
2021/05/15 01:52:35;;;;;;;3.10;2.00;;;13.50;99.90;;;;;;4191882;28;20098;-70
2021/05/15 01:54:35;;;;;;;1.92;1.65;;;13.50;99.90;;;;;;4192898;28;20040;-70
2021/05/15 01:56:37;;;;;;;2.53;1.80;;;13.50;99.90;;;;;;4192961;28;20028;-70
2021/05/15 01:58:39;;;;;;;1.90;1.70;;;13.50;99.90;;;;;;4191702;28;20052;-70
2021/05/15 02:00:39;;;;;;;2.07;1.67;;;13.50;99.90;;;;;;4178248;28;20530;-70
2021/05/15 02:02:40;;;;;;;2.78;1.73;;;13.50;99.90;;;;;;4181935;28;20039;-70
2021/05/15 02:04:41;;;;;;;2.30;1.77;;;13.40;99.90;;;;;;4192465;28;20060;-70
2021/05/15 02:06:41;;;;;;;2.47;2.08;;;13.40;99.90;;;;;;4191358;28;20373;-70
2021/05/15 02:08:45;;;;;;;2.63;1.80;;;13.40;99.90;;;;;;4174858;28;20580;-70
2021/05/15 02:10:47;;;;;;;1.90;1.67;;;13.40;99.90;;;;;;4178547;28;20044;-70
2021/05/15 02:12:47;;;;;;;2.55;1.63;;;13.40;99.90;;;;;;4176334;28;20031;-70
2021/05/15 02:14:48;;;;;;;4.40;1.75;;;13.40;99.90;;;;;;4181819;28;20548;-70
2021/05/15 02:16:49;;;;;;;2.42;1.88;;;13.30;99.90;;;;;;4192853;28;20040;-71
2021/05/15 02:18:49;;;;;;;2.50;1.80;;;13.30;99.90;;;;;;4192592;28;20512;-70
2021/05/15 02:20:50;;;;;;;2.90;1.63;;;13.40;99.90;;;;;;4192789;28;20037;-70
2021/05/15 02:22:51;;;;;;;2.20;1.77;;;13.30;99.90;;;;;;4193122;28;20107;-70
2021/05/15 02:24:52;;;;;;;2.28;1.60;;;13.30;99.90;;;;;;4174329;28;20087;-70
2021/05/15 02:26:52;;;;;;;1.80;1.60;;;13.40;99.90;;;;;;4191237;28;20040;-70
2021/05/15 02:28:53;;;;;;;2.20;1.58;;;13.40;99.90;;;;;;4192900;28;20090;-70
2021/05/15 02:30:54;;;;;;;1.80;1.70;;;13.30;99.90;;;;;;4192383;28;20033;-70
2021/05/15 02:32:55;;;;;;;2.08;1.65;;;13.30;99.90;;;;;;4192663;28;20062;-70
2021/05/15 02:34:55;;;;;;;3.33;2.30;;;13.40;99.90;;;;;;4186880;28;20033;-70
2021/05/15 02:36:56;;;;;;;2.15;1.80;;;13.40;99.90;;;;;;4175728;28;20044;-70
2021/05/15 02:38:57;;;;;;;4.07;2.00;;;13.40;99.90;;;;;;4175959;28;20029;-70
2021/05/15 02:40:58;;;;;;;2.72;1.70;;;13.40;99.90;;;;;;4188662;28;20036;-70
2021/05/15 02:42:58;;;;;;;2.50;1.77;;;13.40;99.90;;;;;;4191898;28;20037;-70
2021/05/15 02:44:59;;;;;;;2.97;1.77;;;13.40;99.90;;;;;;4190567;28;20079;-70
2021/05/15 02:46:59;;;;;;;3.03;2.10;;;13.40;99.90;;;;;;4192357;28;20115;-70
2021/05/15 02:49:00;;;;;;;2.35;2.00;;;13.40;99.90;;;;;;4192394;28;20036;-70
2021/05/15 02:51:01;;;;;;;1.90;1.70;;;13.40;99.90;;;;;;4192588;28;20081;-70
2021/05/15 02:53:02;;;;;;;2.40;2.00;;;13.40;99.90;;;;;;4190738;28;20040;-70
2021/05/15 02:55:05;;;;;;;2.33;1.73;;;13.40;99.90;;;;;;4191764;28;20032;-70
2021/05/15 02:57:06;;;;;;;2.33;1.65;;;13.40;99.90;;;;;;4192247;28;20039;-70
2021/05/15 02:59:07;;;;;;;3.70;1.73;;;13.50;99.90;;;;;;4190883;28;20032;-70
2021/05/15 03:01:07;;;;;;;2.03;1.60;;;13.50;99.90;;;;;;4192318;28;20058;-70
2021/05/15 03:03:09;;;;;;;1.90;1.70;;;13.50;99.90;;;;;;4192426;28;20028;-70
2021/05/15 03:05:13;;;;;;;2.42;1.80;;;13.50;99.90;;;;;;4191724;28;20094;-70
2021/05/15 03:07:13;;;;;;;5.30;1.63;;;13.50;99.90;;;;;;4190844;28;20037;-70
2021/05/15 03:09:14;;;;;;;2.97;2.17;;;13.50;99.90;;;;;;4192106;28;20116;-70
2021/05/15 03:11:14;;;;;;;2.42;1.98;;;13.50;99.90;;;;;;4190290;28;20052;-70
2021/05/15 03:13:15;;;;;;;3.33;1.90;;;13.40;99.90;;;;;;4192235;28;20098;-70
2021/05/15 03:15:16;;;;;;;2.55;1.90;;;13.40;99.90;;;;;;4189345;28;20035;-70
2021/05/15 03:17:16;;;;;;;3.17;1.80;;;13.30;99.90;;;;;;4175732;28;20477;-70
2021/05/15 03:19:17;;;;;;;2.08;1.70;;;13.20;99.90;;;;;;4175955;28;20056;-70
2021/05/15 03:21:17;;;;;;;2.58;1.80;;;13.20;99.90;;;;;;4184147;28;20036;-71
2021/05/15 03:23:18;;;;;;;3.63;1.95;;;13.20;99.90;;;;;;4192768;28;20349;-70
2021/05/15 03:25:20;;;;;;;2.78;1.77;;;13.10;99.90;;;;;;4195472;28;20409;-70
2021/05/15 03:27:20;;;;;;;2.42;1.77;;;13.10;99.90;;;;;;4177499;28;20500;-70
2021/05/15 03:29:21;;;;;;;2.03;1.83;;;13.10;99.90;;;;;;4179303;28;20032;-70
2021/05/15 03:31:21;;;;;;;2.03;1.70;;;13.00;99.90;;;;;;4187076;28;20078;-70
2021/05/15 03:33:22;;;;;;;2.08;1.80;;;13.00;99.90;;;;;;4195415;28;20708;-70
2021/05/15 03:35:23;;;;;;;3.30;1.83;;;13.00;99.90;;;;;;4195309;28;20539;-70
2021/05/15 03:37:23;;;;;;;2.40;2.00;;;12.90;99.90;;;;;;4195459;28;20041;-70
2021/05/15 03:39:24;;;;;;;2.40;1.90;;;12.90;99.90;;;;;;4195279;28;20383;-70
2021/05/15 03:41:25;;;;;;;2.25;2.05;;;12.80;99.90;;;;;;4195294;28;20036;-71
2021/05/15 03:43:27;;;;;;;2.00;1.63;;;12.80;99.90;;;;;;4195638;28;20195;-70
2021/05/15 03:45:27;;;;;;;2.50;1.95;;;12.80;99.90;;;;;;4194944;28;20029;-70
2021/05/15 03:47:28;;;;;;;2.95;2.42;;;12.70;99.90;;;;;;4178610;28;20149;-70
2021/05/15 03:49:29;;;;;;;3.20;2.35;;;12.70;99.90;;;;;;4182510;28;20037;-70
2021/05/15 03:51:30;;;;;;;2.60;2.20;;;12.70;99.90;;;;;;4193064;28;20033;-70
2021/05/15 03:53:31;;;;;;;3.58;2.50;;;12.70;99.90;;;;;;4195188;28;20500;-69
2021/05/15 03:55:31;;;;;;;3.35;2.40;;;12.70;99.90;;;;;;4193722;28;20029;-69
2021/05/15 03:57:32;;;;;;;3.38;2.50;;;12.70;99.90;;;;;;4192599;28;20078;-69
2021/05/15 03:59:32;;;;;;;5.55;2.45;;;12.70;99.90;;;;;;4195158;28;20033;-69
2021/05/15 04:01:33;;;;;;;4.22;2.35;;;12.70;99.90;;;;;;4194330;28;20059;-70
2021/05/15 04:03:34;;;;;;;4.43;2.60;;;12.70;99.90;;;;;;4192127;28;20020;-69
2021/05/15 04:05:35;;;;;;;5.95;2.50;;;12.60;99.90;;;;;;4194215;28;20503;-69
2021/05/15 04:07:35;;;;;;;3.28;2.30;;;12.50;99.90;;;;;;4194345;28;20035;-70
2021/05/15 04:09:36;;;;;;;4.32;2.70;;;12.60;99.90;;;;;;4194525;28;20036;-69
2021/05/15 04:11:39;;;;;;;3.83;2.70;;;12.50;99.90;;;;;;4192546;28;20033;-70
2021/05/15 04:16:08;;;;;;;3.53;2.55;;;12.50;99.90;;;;;;4193844;28;20029;-69
2021/05/15 04:18:08;;;;;;;3.72;2.60;;;12.60;99.90;;;;;;4193126;28;20036;-70
2021/05/15 04:20:09;;;;;;;3.22;2.75;;;12.60;99.90;;;;;;4193559;28;20029;-70
2021/05/15 04:22:10;;;;;;;4.13;2.88;;;12.50;99.90;;;;;;4192571;28;20028;-69
2021/05/15 04:24:11;;;;;;;4.05;2.97;;;12.60;99.90;;;;;;4194392;28;20040;-69
2021/05/15 04:26:11;;;;;;;5.10;3.08;;;12.50;99.90;;;;;;4193925;28;20044;-69
2021/05/15 04:28:13;;;;;;;4.05;2.63;;;12.50;99.90;;;;;;4194139;28;20454;-72
2021/05/15 04:30:14;;;;;;;3.97;3.05;;;12.50;99.90;;;;;;4194558;28;20029;-70
2021/05/15 04:32:15;;;;;;;6.10;3.08;;;12.60;99.90;;;;;;4193621;28;20099;-70
2021/05/15 04:34:16;;;;;;;3.40;2.97;;;12.50;99.90;;;;;;4192679;28;20037;-70
2021/05/15 04:36:16;;;;;;;4.43;3.00;;;12.50;99.90;;;;;;4192932;28;20056;-70
2021/05/15 04:38:18;;;;;;;5.30;3.47;;;12.60;99.90;;;;;;4193001;28;20089;-70
2021/05/15 04:40:18;;;;;;;7.22;3.13;;;12.60;99.90;;;;;;4193382;28;21575;-70
2021/05/15 04:42:19;;;;;;;4.80;3.10;;;12.60;99.90;;;;;;4194582;28;20392;-70
2021/05/15 04:44:20;;;;;;;3.90;3.00;;;12.60;99.90;;;;;;4194298;28;20056;-70
2021/05/15 04:46:20;;;;;;;4.05;2.90;;;12.60;99.90;;;;;;4192646;28;20041;-70
2021/05/15 04:48:21;;;;;;;4.65;3.20;;;12.60;99.90;;;;;;4192352;28;20044;-70
2021/05/15 04:50:22;;;;;;;4.20;3.42;;;12.60;99.90;;;;;;4194521;28;20077;-70
2021/05/15 04:52:22;;;;;;;4.63;3.40;;;12.60;99.90;;;;;;4194259;28;20029;-70
2021/05/15 04:54:23;;;;;;;4.40;3.30;;;12.60;99.90;;;;;;4194278;28;20079;-70
2021/05/15 04:56:24;;;;;;;4.53;3.35;;;12.50;99.90;;;;;;4192509;28;20043;-71
2021/05/15 04:58:24;;;;;;;4.93;3.67;;;12.50;99.90;;;;;;4194274;28;20040;-70
2021/05/15 05:00:25;;;;;;;6.82;3.90;;;12.50;99.90;;;;;;4191900;28;20084;-70
2021/05/15 05:02:26;;;;;;;5.03;3.75;;;12.50;99.90;;;;;;4193905;28;20110;-70
2021/05/15 05:04:26;;;;;;;5.88;3.78;;;12.50;99.90;;;;;;4192311;28;20029;-70
2021/05/15 05:06:27;;;;;;;9.00;3.90;;;12.50;99.90;;;;;;4193777;28;20059;-70
2021/05/15 05:08:28;;;;;;;4.32;3.45;;;12.50;99.90;;;;;;4180078;28;20432;-70
2021/05/15 05:10:29;;;;;;;5.32;3.88;;;12.60;99.90;;;;;;4177546;28;20056;-70
2021/05/15 05:12:29;;;;;;;5.55;3.80;;;12.60;99.90;;;;;;4166968;28;20041;-70
2021/05/15 05:14:30;;;;;;;5.70;3.95;;;12.50;99.90;;;;;;4193180;28;20158;-71
2021/05/15 05:16:30;;;;;;;5.15;4.10;;;12.60;99.90;;;;;;4175555;28;20081;-70
2021/05/15 05:18:31;;;;;;;8.85;4.45;;;12.60;99.90;;;;;;4193060;28;20033;-70
2021/05/15 05:20:32;;;;;;;6.32;4.10;;;12.60;99.90;;;;;;4193464;28;20032;-70
2021/05/15 05:22:32;;;;;;;5.88;4.43;;;12.60;99.90;;;;;;4183301;28;21226;-71
2021/05/15 05:24:33;;;;;;;6.57;4.65;;;12.60;99.90;;;;;;4189627;28;20045;-70
2021/05/15 05:26:38;;;;;;;7.53;4.97;;;12.60;99.90;;;;;;4192787;28;20423;-70
2021/05/15 05:28:39;;;;;;;7.35;4.95;;;12.60;99.90;;;;;;4194364;28;20565;-70
2021/05/15 05:30:40;;;;;;;9.95;6.03;;;12.60;99.90;;;;;;4191168;28;20028;-71
2021/05/15 05:32:41;;;;;;;9.68;6.00;;;12.60;99.90;;;;;;4194794;28;20090;-70
2021/05/15 05:34:42;;;;;;;9.70;6.18;;;12.60;99.90;;;;;;4194431;28;20107;-70
2021/05/15 05:36:43;;;;;;;12.35;7.63;;;12.60;99.90;;;;;;4145099;28;20029;-70
2021/05/15 05:38:44;;;;;;;11.20;7.50;;;12.60;99.90;;;;;;4146853;22;20490;-84
2021/05/15 05:40:44;;;;;;;10.55;6.85;;;12.50;99.90;;;;;;4109852;28;20160;-84
2021/05/15 05:42:45;;;;;;;10.20;6.55;;;12.60;99.90;;;;;;4123687;28;20120;-84
2021/05/15 05:44:46;;;;;;;9.68;6.20;;;12.60;99.90;;;;;;4102160;28;20035;-81
2021/05/15 05:46:47;;;;;;;9.65;6.65;;;12.50;99.90;;;;;;4123222;28;20181;-81
2021/05/15 05:48:48;;;;;;;12.57;7.40;;;12.60;99.90;;;;;;4122097;28;20038;-81
2021/05/15 05:50:49;;;;;;;13.05;9.00;;;12.50;99.90;;;;;;4109076;28;20475;-81
2021/05/15 05:52:50;;;;;;;11.60;7.88;;;12.40;99.90;;;;;;4120210;28;20475;-79
2021/05/15 05:54:51;;;;;;;13.13;8.93;;;12.40;99.90;;;;;;4122119;28;20027;-79
2021/05/15 05:56:51;;;;;;;12.35;7.90;;;12.40;99.90;;;;;;4117612;28;20121;-78
2021/05/15 05:58:52;;;;;;;13.63;9.23;;;12.40;99.90;;;;;;4118631;28;20053;-78
2021/05/15 06:00:53;;;;;;;13.88;8.57;;;12.40;99.90;;;;;;4124248;28;20105;-80
2021/05/15 06:02:53;;;;;;;16.30;10.07;;;12.40;99.90;;;;;;4120431;28;20092;-80
2021/05/15 06:04:54;;;;;;;14.32;9.70;;;12.40;99.90;;;;;;4123271;28;20502;-78
2021/05/15 06:06:54;;;;;;;20.35;10.93;;;12.40;99.90;;;;;;4131174;28;20030;-78
2021/05/15 06:08:56;;;;;;;14.68;9.10;;;12.50;99.90;;;;;;4123415;28;20055;-78
2021/05/15 06:10:57;;;;;;;15.30;9.52;;;12.50;99.90;;;;;;4106927;28;20085;-78
2021/05/15 06:12:58;;;;;;;16.55;10.05;;;12.50;99.90;;;;;;4124488;28;20422;-80
2021/05/15 06:14:59;;;;;;;17.25;10.50;;;12.50;99.90;;;;;;4123371;28;20022;-80
2021/05/15 06:17:00;;;;;;;17.35;10.38;;;12.60;99.90;;;;;;4121831;28;20034;-80
2021/05/15 06:19:01;;;;;;;15.75;9.32;;;12.50;99.90;;;;;;4121317;28;20443;-80
2021/05/15 06:21:01;;;;;;;14.60;9.40;;;12.50;99.90;;;;;;4119236;28;20276;-81
2021/05/15 06:23:02;;;;;;;14.25;9.05;;;12.60;99.90;;;;;;4119483;28;20038;-80
2021/05/15 06:25:03;;;;;;;14.38;9.00;;;12.60;99.90;;;;;;4101250;28;20093;-80
2021/05/15 06:27:04;;;;;;;16.60;9.43;;;12.60;99.90;;;;;;4107709;28;20083;-80
2021/05/15 06:29:05;;;;;;;17.25;9.27;;;12.60;99.90;;;;;;4123021;28;20697;-80
2021/05/15 06:31:06;;;;;;;15.23;9.05;;;12.60;99.90;;;;;;4125027;28;20056;-80
2021/05/15 06:33:07;;;;;;;20.05;10.10;;;12.60;99.90;;;;;;4119990;28;20089;-80
2021/05/15 06:35:08;;;;;;;15.73;9.07;;;12.70;99.90;;;;;;4113212;28;20038;-80
2021/05/15 06:37:09;;;;;;;15.25;9.73;;;12.60;99.90;;;;;;4113637;28;20058;-81
2021/05/15 06:39:09;;;;;;;16.45;10.13;;;12.70;99.90;;;;;;4119630;28;20459;-80
2021/05/15 06:41:10;;;;;;;17.33;10.20;;;12.70;99.90;;;;;;4120202;28;20138;-81
2021/05/15 06:43:11;;;;;;;16.25;10.45;;;12.70;99.90;;;;;;4124016;28;20027;-80
2021/05/15 06:45:11;;;;;;;18.20;10.60;;;12.70;99.90;;;;;;4124288;28;20042;-82
2021/05/15 06:47:12;;;;;;;18.25;11.52;;;12.70;99.90;;;;;;4124619;28;20039;-81
2021/05/15 06:49:13;;;;;;;19.45;12.40;;;12.80;99.90;;;;;;4118940;28;20035;-82
2021/05/15 06:51:13;;;;;;;22.15;12.98;;;12.80;99.90;;;;;;4126617;28;20093;-82
2021/05/15 06:53:14;;;;;;;26.17;15.90;;;12.70;99.90;;;;;;4115304;28;20468;-81
2021/05/15 06:55:14;;;;;;;24.05;14.20;;;12.70;99.90;;;;;;4114810;28;20034;-81
2021/05/15 06:57:15;;;;;;;22.75;14.00;;;12.70;99.90;;;;;;4097405;28;20031;-81
2021/05/15 06:59:16;;;;;;;23.30;14.50;;;12.80;99.90;;;;;;4140066;28;20038;-81
2021/05/15 07:01:17;;;;;;;23.60;14.48;;;12.80;99.90;;;;;;4129159;28;20037;-81
2021/05/15 07:03:17;;;;;;;22.77;14.05;;;12.80;99.90;;;;;;4102282;28;20419;-81
2021/05/15 07:05:18;;;;;;;22.15;13.43;;;12.80;99.90;;;;;;4115197;28;20035;-81
2021/05/15 07:07:20;;;;;;;23.38;14.35;;;12.80;99.90;;;;;;4120454;28;20038;-80
2021/05/15 07:09:21;;;;;;;22.80;14.80;;;12.80;99.90;;;;;;4115446;28;20425;-80
2021/05/15 07:11:22;;;;;;;29.25;17.58;;;12.80;99.90;;;;;;4120511;28;20058;-81
2021/05/15 07:13:23;;;;;;;29.30;18.05;;;12.80;99.90;;;;;;4124017;28;20030;-81
2021/05/15 07:15:23;;;;;;;25.35;16.08;;;12.70;99.90;;;;;;4116112;28;20077;-81
2021/05/15 07:17:27;;;;;;;26.67;16.63;;;12.80;99.90;;;;;;4123065;28;20031;-81
2021/05/15 07:19:27;;;;;;;24.20;16.40;;;12.80;99.90;;;;;;4121908;28;20042;-81
2021/05/15 07:21:28;;;;;;;24.83;16.80;;;12.90;99.90;;;;;;4125529;28;20495;-82
2021/05/15 07:23:28;;;;;;;28.55;17.70;;;12.90;99.90;;;;;;4119281;28;20023;-81
2021/05/15 07:25:29;;;;;;;31.42;19.77;;;12.90;99.90;;;;;;4126562;28;20106;-81
2021/05/15 07:27:30;;;;;;;30.45;18.80;;;12.90;99.90;;;;;;4125328;28;20117;-81
2021/05/15 07:29:30;;;;;;;25.05;16.40;;;12.90;99.90;;;;;;4114287;28;20502;-81
2021/05/15 07:31:31;;;;;;;28.17;18.15;;;12.90;99.90;;;;;;4122946;28;20026;-81
2021/05/15 07:33:32;;;;;;;25.75;16.67;;;12.90;99.90;;;;;;4111909;28;20314;-81
2021/05/15 07:35:33;;;;;;;31.58;19.23;;;13.00;99.90;;;;;;4125859;28;20034;-81
2021/05/15 07:37:34;;;;;;;26.95;17.80;;;13.00;99.90;;;;;;4122087;28;20117;-81
2021/05/15 07:39:36;;;;;;;27.83;18.55;;;13.00;99.90;;;;;;4123926;28;20030;-81
2021/05/15 07:41:36;;;;;;;27.27;17.97;;;13.00;99.90;;;;;;4126790;28;20026;-81
2021/05/15 07:43:37;;;;;;;30.10;19.98;;;13.00;99.90;;;;;;4116901;28;20038;-81
2021/05/15 07:45:37;;;;;;;29.48;19.10;;;13.00;99.90;;;;;;4099008;28;20039;-82
2021/05/15 07:47:40;;;;;;;26.40;17.40;;;13.00;99.90;;;;;;4118463;28;20037;-81
2021/05/15 07:49:40;;;;;;;29.85;18.98;;;13.00;99.90;;;;;;4111562;28;20124;-81
2021/05/15 07:51:41;;;;;;;28.58;18.25;;;13.00;99.90;;;;;;4109350;28;20031;-82
2021/05/15 07:53:42;;;;;;;31.65;19.38;;;13.10;99.90;;;;;;4118059;28;20506;-79
2021/05/15 07:55:43;;;;;;;27.00;18.83;;;13.10;99.90;;;;;;4116257;28;20047;-80
2021/05/15 07:57:44;;;;;;;30.75;18.65;;;13.10;99.90;;;;;;4118218;28;20097;-80
2021/05/15 07:59:45;;;;;;;31.42;19.67;;;13.10;99.90;;;;;;4117607;28;20077;-79
2021/05/15 08:01:45;;;;;;;27.27;18.38;;;13.10;99.90;;;;;;4101251;28;20039;-80
2021/05/15 08:03:46;;;;;;;25.00;17.20;;;13.10;99.90;;;;;;4121627;28;20098;-79
2021/05/15 08:05:47;;;;;;;28.00;17.60;;;13.10;99.90;;;;;;4104985;28;20038;-79
2021/05/15 08:07:47;;;;;;;22.90;15.20;;;13.10;99.90;;;;;;4124163;28;20075;-80
2021/05/15 08:09:48;;;;;;;21.48;14.32;;;13.10;99.90;;;;;;4124843;28;20039;-79
2021/05/15 08:11:49;;;;;;;22.38;13.80;;;13.10;99.90;;;;;;4126105;28;20034;-79
2021/05/15 08:13:50;;;;;;;19.20;12.93;;;13.10;99.90;;;;;;4123815;28;20041;-79
2021/05/15 08:15:51;;;;;;;18.95;12.32;;;13.20;99.90;;;;;;4129230;28;20062;-79
2021/05/15 08:17:52;;;;;;;19.00;12.38;;;13.20;99.90;;;;;;4123459;28;20038;-80
2021/05/15 08:19:53;;;;;;;19.30;12.40;;;13.20;99.90;;;;;;4120583;28;20173;-79
2021/05/15 08:21:54;;;;;;;17.90;11.50;;;13.20;99.90;;;;;;4127401;28;20030;-81
2021/05/15 08:23:55;;;;;;;16.13;11.05;;;13.20;99.90;;;;;;4125685;28;20039;-81
2021/05/15 08:25:56;;;;;;;15.52;10.75;;;13.10;99.90;;;;;;4125619;28;20054;-81
2021/05/15 08:27:59;;;;;;;16.55;11.10;;;13.10;99.90;;;;;;4126957;28;20034;-81
2021/05/15 08:29:59;;;;;;;;;;;13.10;99.90;;;;;;4126866;28;20038;-81
2021/05/15 08:32:00;;;;;;;15.63;10.50;;;13.10;99.90;;;;;;4119357;28;20282;-81
2021/05/15 08:34:01;;;;;;;19.05;12.27;;;13.10;99.90;;;;;;4105167;28;20038;-81
2021/05/15 08:36:03;;;;;;;19.48;13.30;;;13.10;99.90;;;;;;4120058;28;20034;-81
2021/05/15 08:38:05;;;;;;;18.05;12.55;;;13.00;99.90;;;;;;4119791;28;20050;-81
2021/05/15 08:40:07;;;;;;;17.65;12.02;;;13.00;99.90;;;;;;4119726;28;20079;-81
2021/05/15 08:42:08;;;;;;;;;;;13.00;99.90;;;;;;4122511;28;20503;-81
2021/05/15 08:44:12;;;;;;;24.35;13.63;;;13.00;99.90;;;;;;4124652;28;19964;-82
2021/05/15 08:46:14;;;;;;;18.67;13.00;;;12.90;99.90;;;;;;4106712;28;20069;-81
2021/05/15 08:48:15;;;;;;;19.83;13.40;;;12.90;99.90;;;;;;4124835;28;20035;-81
2021/05/15 08:50:19;;;;;;;19.42;12.65;;;13.00;99.90;;;;;;4118932;28;20035;-81
2021/05/15 08:52:20;;;;;;;21.55;13.80;;;13.00;99.90;;;;;;4119251;28;20043;-81
2021/05/15 08:54:22;;;;;;;19.42;13.65;;;13.00;99.90;;;;;;4102622;28;20050;-81
2021/05/15 08:56:22;;;;;;;21.25;14.18;;;13.00;99.90;;;;;;4122072;28;20126;-81
2021/05/15 08:58:23;;;;;;;21.45;13.43;;;13.10;99.90;;;;;;4123293;28;20085;-81
2021/05/15 09:00:32;;;;;;;22.33;14.35;;;13.10;99.90;;;;;;4116846;28;20031;-81
2021/05/15 09:02:33;;;;;;;25.25;15.07;;;13.10;99.90;;;;;;4120989;28;20321;-81
2021/05/15 09:04:33;;;;;;;22.83;14.93;;;13.10;99.90;;;;;;4103517;28;20075;-81
2021/05/15 09:06:34;;;;;;;22.25;14.55;;;13.20;99.90;;;;;;4119572;28;20537;-81
2021/05/15 09:08:36;;;;;;;24.33;15.30;;;13.20;99.90;;;;;;4119299;28;20038;-81
2021/05/15 09:10:40;;;;;;;24.30;14.57;;;13.20;99.90;;;;;;4116430;28;20027;-80
2021/05/15 09:12:40;;;;;;;23.83;14.80;;;13.30;99.90;;;;;;4121177;28;20049;-80
2021/05/15 09:14:41;;;;;;;20.10;13.00;;;13.40;99.90;;;;;;4121228;28;20543;-81
2021/05/15 09:16:50;;;;;;;22.08;13.77;;;13.40;99.90;;;;;;4121251;28;20042;-80
2021/05/15 09:18:50;;;;;;;22.55;14.13;;;13.50;99.90;;;;;;4120938;28;20049;-80
2021/05/15 09:20:54;;;;;;;21.27;13.18;;;13.50;99.90;;;;;;4122362;28;20061;-79
2021/05/15 09:22:55;;;;;;;17.95;11.82;;;13.60;99.90;;;;;;4121915;28;20062;-80
2021/05/15 09:25:04;;;;;;;19.05;12.60;;;13.60;99.90;;;;;;4120744;28;20034;-80
2021/05/15 09:27:07;;;;;;;16.02;10.60;;;13.70;99.90;;;;;;4122413;28;20107;-80
2021/05/15 09:29:08;;;;;;;16.20;11.63;;;13.80;99.90;;;;;;4122469;28;20038;-80
2021/05/15 09:31:15;;;;;;;18.05;12.32;;;13.90;99.90;;;;;;4127554;28;20152;-80
2021/05/15 09:33:15;;;;;;;19.70;13.85;;;14.00;99.90;;;;;;4120131;28;20034;-80
2021/05/15 09:35:24;;;;;;;16.50;12.02;;;14.10;99.90;;;;;;4122451;28;20078;-80
2021/05/15 09:37:32;;;;;;;16.05;10.55;;;14.20;99.90;;;;;;4119981;28;20530;-82
2021/05/15 09:39:32;;;;;;;16.40;10.75;;;14.30;99.90;;;;;;4120117;28;20031;-81
2021/05/15 09:41:48;;;;;;;13.52;9.60;;;14.30;99.90;;;;;;4102779;28;20053;-81
2021/05/15 09:43:52;;;;;;;12.20;9.50;;;14.40;99.90;;;;;;4125201;28;20415;-81
2021/05/15 09:45:53;;;;;;;12.32;9.20;;;14.50;99.90;;;;;;4121946;28;20562;-81
2021/05/15 09:47:59;;;;;;;11.13;8.75;;;14.60;99.90;;;;;;4118962;28;20035;-81
2021/05/15 09:50:11;;;;;;;12.57;9.50;;;14.70;99.90;;;;;;4119231;28;20038;-80
2021/05/15 09:52:11;;;;;;;13.90;10.27;;;14.70;99.90;;;;;;4104045;28;20039;-80
2021/05/15 09:54:15;;;;;;;10.15;7.63;;;14.70;99.90;;;;;;4102679;28;20043;-80
2021/05/15 09:56:31;;;;;;;11.63;8.77;;;14.80;99.90;;;;;;4105301;28;20050;-80
2021/05/15 09:58:32;;;;;;;10.23;7.05;;;14.80;99.90;;;;;;4138372;28;20584;-80
2021/05/15 10:00:43;;;;;;;11.07;7.43;;;14.90;99.90;;;;;;4123578;28;20038;-80
2021/05/15 10:02:54;;;;;;;11.38;7.60;;;14.90;99.90;;;;;;4122517;28;20031;-80
2021/05/15 10:04:55;;;;;;;10.18;7.75;;;14.90;99.90;;;;;;4109476;28;20146;-81
2021/05/15 10:06:56;;;;;;;8.68;7.05;;;14.90;99.90;;;;;;4121159;28;20034;-80
2021/05/15 10:08:57;;;;;;;8.77;7.22;;;14.90;99.90;;;;;;4104387;28;20043;-80
2021/05/15 10:10:59;;;;;;;9.20;7.22;;;15.00;99.90;;;;;;4124417;28;20111;-80
2021/05/15 10:13:01;;;;;;;10.83;7.77;;;15.00;99.90;;;;;;4122022;28;20510;-80
2021/05/15 10:15:04;;;;;;;8.80;6.80;;;14.90;99.90;;;;;;4102748;28;20310;-80
2021/05/15 10:17:05;;;;;;;8.98;6.70;;;15.00;99.90;;;;;;4122128;28;20038;-80
2021/05/15 10:19:05;;;;;;;9.02;6.57;;;15.00;99.90;;;;;;4121648;28;20031;-80
2021/05/15 10:21:06;;;;;;;10.55;7.63;;;15.00;99.90;;;;;;4117904;28;20065;-80
2021/05/15 10:23:22;;;;;;;10.48;7.43;;;15.10;99.90;;;;;;4118853;28;20683;-80
2021/05/15 10:25:23;;;;;;;9.43;7.75;;;15.20;99.90;;;;;;4102835;28;20082;-80
2021/05/15 10:27:24;;;;;;;9.45;7.43;;;15.30;99.90;;;;;;4120218;28;20077;-80
2021/05/15 10:29:43;;;;;;;8.57;6.50;;;15.30;99.90;;;;;;4104491;28;20496;-81